Portada
METAR-TAF:

METAR-TAF

Aeroports :

Ambon, Indonèsia

latitud: 03-42S, longitud: 128-05E, altitud: 12 m

Observació

L'informe es va fer fa 3 hores i 33 minuts, a les 11:00 UTC
Vent 2 kt amb direcció variable
Temperatura 29°C
Humitat 74%
Pressió 1008 hPa
Visibilitat 10 km o més
Núvols disperses a una alçada de 1800 ft

METAR: WAPP 261100Z VRB02KT 9999 SCT018 29/24 Q1008 NOSIG

Hora: 23:33 (14:33 UTC)

Pronòstic

L'informe es va fer fa 3 hores i 33 minuts, a les 11:00 UTC
Pronòstic vàlid del 26 a les 12 UTC al 27 a les 12 UTC
Vent 5 kt del Nord
Visibilitat 10 km o més
Núvols disperses a una alçada de 1800 ft

TAF: WAPP 261100Z 2612/2712 35005KT 9999 SCT018

Observacions i pronòstics meteorològics de més de 4000 aeroports (METAR i TAF).

Les estacions disponibles són els punts grocs i vermells al mapa.

Posi el ratolí al punt desitjat per veure el nom de l'estació.

Feu clic per veure les observacions i els pronòstics meteorològics.

Per canviar el mapa: feu clic els botons verds amb una creu de color negre per apropar; al botó verd amb un guió per allunyar la imatge; o en les fletxes verdes per a mapes adjacents.


METAR-TAF: